Time;durP1;ratioP1;P1;durP2;ratioP2;P2;SDS_P1;SDS_P2;PMS_P1;PMS_P2;Temp;Humidity;BMP_temperature;BMP_pressure;BME280_temperature;BME280_humidity;BME280_pressure;Samples;Min_cycle;Max_cycle;Signal;HPM_P1;HPM_P2
2023/10/21 00:00:45;;;;;;;2.75;1.00;;;14.40;99.90;;;;;;2098149;28;20615;-72
2023/10/21 00:01:48;;;;;;;2.70;1.05;;;14.40;99.90;;;;;;2097186;28;20040;-72
2023/10/21 00:02:50;;;;;;;2.83;1.15;;;14.40;99.90;;;;;;2096830;28;20031;-72
2023/10/21 00:03:51;;;;;;;2.17;1.00;;;14.30;99.90;;;;;;2097656;28;20036;-72
2023/10/21 00:04:51;;;;;;;1.77;1.00;;;14.40;99.90;;;;;;2098918;28;20115;-71
2023/10/21 00:05:52;;;;;;;3.63;1.08;;;14.30;99.90;;;;;;2089523;28;20032;-72
2023/10/21 00:06:52;;;;;;;1.48;0.90;;;14.40;99.90;;;;;;2099419;28;20534;-72
2023/10/21 00:07:53;;;;;;;2.80;0.95;;;14.40;99.90;;;;;;2100166;28;20016;-71
2023/10/21 00:08:54;;;;;;;3.17;1.33;;;14.30;99.90;;;;;;2098253;28;20017;-71
2023/10/21 00:09:54;;;;;;;2.17;1.00;;;14.30;99.90;;;;;;2097533;28;20033;-71
2023/10/21 00:11:09;;;;;;;1.65;1.02;;;14.30;99.90;;;;;;2097464;28;20040;-72
2023/10/21 00:12:09;;;;;;;3.67;1.20;;;14.30;99.90;;;;;;2098229;28;20548;-73
2023/10/21 00:13:10;;;;;;;1.98;1.00;;;14.30;99.90;;;;;;2097899;28;20476;-72
2023/10/21 00:14:10;;;;;;;1.30;0.95;;;14.30;99.90;;;;;;2096280;28;20066;-71
2023/10/21 00:15:11;;;;;;;2.80;0.80;;;14.30;99.90;;;;;;2098550;28;20391;-72
2023/10/21 00:16:12;;;;;;;1.88;1.00;;;14.30;99.90;;;;;;2099813;28;20103;-73
2023/10/21 00:17:12;;;;;;;8.25;1.10;;;14.30;99.90;;;;;;2098785;28;20020;-72
2023/10/21 00:18:13;;;;;;;2.28;1.08;;;14.30;99.90;;;;;;2098230;28;20021;-71
2023/10/21 00:19:14;;;;;;;3.65;1.20;;;14.30;99.90;;;;;;2097422;28;20032;-72
2023/10/21 00:20:14;;;;;;;3.13;1.05;;;14.30;99.90;;;;;;2098054;28;20528;-72
2023/10/21 00:21:15;;;;;;;2.92;1.20;;;14.30;99.90;;;;;;2098158;28;20067;-74
2023/10/21 00:22:15;;;;;;;4.95;1.20;;;14.30;99.90;;;;;;2098645;28;20103;-75
2023/10/21 00:23:16;;;;;;;2.80;0.77;;;14.20;99.90;;;;;;2097144;28;20023;-74
2023/10/21 00:24:16;;;;;;;2.85;1.20;;;14.20;99.90;;;;;;2098201;28;20082;-73
2023/10/21 00:25:18;;;;;;;1.38;0.90;;;14.20;99.90;;;;;;2101893;28;20020;-74
2023/10/21 00:26:18;;;;;;;1.80;0.85;;;14.20;99.90;;;;;;2102689;28;20016;-74
2023/10/21 00:27:19;;;;;;;1.85;0.93;;;14.30;99.90;;;;;;2098634;28;20020;-74
2023/10/21 00:28:19;;;;;;;0.85;0.85;;;14.30;99.90;;;;;;2100600;28;20020;-75
2023/10/21 00:29:20;;;;;;;1.75;0.90;;;14.20;99.90;;;;;;2099594;28;20055;-74
2023/10/21 00:30:22;;;;;;;2.35;0.77;;;14.30;99.90;;;;;;2098855;28;20109;-75
2023/10/21 00:31:23;;;;;;;2.88;0.98;;;14.30;99.90;;;;;;2096857;28;20054;-74
2023/10/21 00:32:23;;;;;;;4.18;1.15;;;14.30;99.90;;;;;;2097129;28;20032;-75
2023/10/21 00:33:24;;;;;;;2.35;1.00;;;14.30;99.90;;;;;;2097068;28;20067;-74
2023/10/21 00:34:24;;;;;;;2.28;0.90;;;14.20;99.90;;;;;;2098231;28;20534;-75
2023/10/21 00:35:25;;;;;;;2.33;1.02;;;14.30;99.90;;;;;;2098071;28;20097;-75
2023/10/21 00:36:25;;;;;;;3.25;1.42;;;14.30;99.90;;;;;;2097227;28;20032;-74
2023/10/21 00:37:26;;;;;;;1.88;0.68;;;14.30;99.90;;;;;;2098590;28;20578;-74
2023/10/21 00:38:26;;;;;;;2.97;0.90;;;14.20;99.90;;;;;;2098032;28;20094;-74
2023/10/21 00:39:27;;;;;;;0.85;0.60;;;14.30;99.90;;;;;;2098126;28;20024;-74
2023/10/21 00:40:27;;;;;;;1.60;0.88;;;14.30;99.90;;;;;;2098876;28;20029;-74
2023/10/21 00:41:28;;;;;;;6.30;1.10;;;14.30;99.90;;;;;;2098420;28;20487;-74
2023/10/21 00:42:28;;;;;;;1.50;0.88;;;14.30;99.90;;;;;;2096935;28;20418;-74
2023/10/21 00:43:37;;;;;;;2.42;1.20;;;14.30;99.90;;;;;;2103125;28;20425;-72
2023/10/21 00:44:37;;;;;;;2.03;1.00;;;14.30;99.90;;;;;;2100712;28;20387;-75
2023/10/21 00:45:38;;;;;;;2.38;1.10;;;14.30;99.90;;;;;;2105613;28;20066;-74
2023/10/21 00:46:42;;;;;;;1.25;0.85;;;14.30;99.90;;;;;;2098200;28;20032;-74
2023/10/21 00:47:44;;;;;;;3.47;0.85;;;14.30;99.90;;;;;;2096631;28;20095;-73
2023/10/21 00:48:45;;;;;;;1.20;0.85;;;14.30;99.90;;;;;;2099959;28;20032;-73
2023/10/21 00:49:46;;;;;;;2.97;0.70;;;14.30;99.90;;;;;;2097699;28;20399;-74
2023/10/21 00:50:48;;;;;;;4.10;1.02;;;14.30;99.90;;;;;;2095952;28;20033;-73
2023/10/21 00:51:49;;;;;;;2.25;0.80;;;14.30;99.90;;;;;;2097119;28;20025;-74
2023/10/21 00:52:49;;;;;;;3.22;1.08;;;14.40;99.90;;;;;;2098164;28;20419;-74
2023/10/21 00:53:53;;;;;;;1.73;0.90;;;14.30;99.90;;;;;;2105676;28;20058;-75
2023/10/21 00:54:58;;;;;;;3.63;0.90;;;14.30;99.90;;;;;;2105219;28;20024;-74
2023/10/21 00:55:59;;;;;;;3.38;0.80;;;14.40;99.90;;;;;;2098246;28;20047;-74
2023/10/21 00:57:00;;;;;;;2.60;1.05;;;14.30;99.90;;;;;;2100482;28;20028;-74
2023/10/21 00:58:01;;;;;;;2.90;0.88;;;14.30;99.90;;;;;;2099208;28;20064;-74
2023/10/21 00:59:01;;;;;;;1.33;0.73;;;14.40;99.90;;;;;;2100007;28;20067;-74
2023/10/21 01:00:10;;;;;;;2.20;1.08;;;14.40;99.90;;;;;;2099606;28;20059;-73
2023/10/21 01:01:13;;;;;;;6.10;1.05;;;14.40;99.90;;;;;;2098462;28;20066;-74
2023/10/21 01:02:13;;;;;;;1.65;0.63;;;14.40;99.90;;;;;;2097389;28;20051;-75
2023/10/21 01:03:14;;;;;;;1.30;0.90;;;14.40;99.90;;;;;;2091584;28;20055;-75
2023/10/21 01:04:16;;;;;;;2.30;0.70;;;14.40;99.90;;;;;;2089676;28;20364;-75
2023/10/21 01:05:19;;;;;;;2.03;0.82;;;14.40;99.90;;;;;;2092179;28;20470;-75
2023/10/21 01:06:22;;;;;;;2.35;1.00;;;14.40;99.90;;;;;;2098785;28;20581;-73
2023/10/21 01:07:23;;;;;;;1.52;0.95;;;14.40;99.90;;;;;;2099598;28;20454;-74
2023/10/21 01:08:23;;;;;;;1.45;0.88;;;14.40;99.90;;;;;;2096617;28;20021;-74
2023/10/21 01:09:26;;;;;;;2.28;0.90;;;14.40;99.90;;;;;;2090199;28;20094;-74
2023/10/21 01:10:27;;;;;;;1.05;0.85;;;14.40;99.90;;;;;;2100904;28;20071;-74
2023/10/21 01:11:27;;;;;;;1.58;1.15;;;14.40;99.90;;;;;;2099710;28;20012;-75
2023/10/21 01:12:28;;;;;;;2.08;0.80;;;14.50;99.90;;;;;;2099774;28;20024;-73
2023/10/21 01:13:28;;;;;;;4.25;0.95;;;14.50;99.90;;;;;;2098693;28;20024;-74
2023/10/21 01:14:29;;;;;;;3.13;1.00;;;14.50;99.90;;;;;;2099258;28;20085;-74
2023/10/21 01:15:30;;;;;;;3.45;0.90;;;14.50;99.90;;;;;;2100978;28;20151;-74
2023/10/21 01:16:31;;;;;;;1.27;0.75;;;14.50;99.90;;;;;;2099711;28;20466;-75
2023/10/21 01:17:31;;;;;;;5.07;0.90;;;14.50;99.90;;;;;;2097990;28;20649;-74
2023/10/21 01:18:33;;;;;;;3.20;0.95;;;14.50;99.90;;;;;;2099331;28;20037;-74
2023/10/21 01:19:34;;;;;;;1.88;0.75;;;14.50;99.90;;;;;;2099189;28;20016;-76
2023/10/21 01:20:39;;;;;;;1.48;0.75;;;14.50;99.90;;;;;;2099666;28;20032;-74
2023/10/21 01:21:40;;;;;;;3.03;1.08;;;14.60;99.90;;;;;;2100062;28;20138;-74
2023/10/21 01:22:40;;;;;;;1.15;0.70;;;14.50;99.90;;;;;;2100309;28;20608;-75
2023/10/21 01:23:41;;;;;;;1.67;0.70;;;14.60;99.90;;;;;;2095013;28;20021;-74
2023/10/21 01:24:42;;;;;;;1.65;1.00;;;14.50;99.90;;;;;;2101396;28;20164;-75
2023/10/21 01:25:45;;;;;;;1.20;0.80;;;14.50;99.90;;;;;;2102841;28;20026;-74
2023/10/21 01:26:46;;;;;;;3.25;1.05;;;14.50;99.90;;;;;;2103341;28;20059;-74
2023/10/21 01:27:47;;;;;;;1.80;0.95;;;14.60;99.90;;;;;;2099553;28;20078;-75
2023/10/21 01:28:47;;;;;;;4.97;1.42;;;14.60;99.90;;;;;;2098014;28;20023;-74
2023/10/21 01:29:48;;;;;;;0.75;0.75;;;14.60;99.90;;;;;;2097911;28;20055;-74
2023/10/21 01:30:48;;;;;;;1.92;0.80;;;14.60;99.90;;;;;;2098059;28;20483;-73
2023/10/21 01:31:49;;;;;;;2.25;0.80;;;14.60;99.90;;;;;;2101811;28;20020;-72
2023/10/21 01:32:50;;;;;;;0.80;0.77;;;14.60;99.90;;;;;;2103841;28;20069;-72
2023/10/21 01:33:50;;;;;;;2.45;0.90;;;14.60;99.90;;;;;;2098937;28;20021;-71
2023/10/21 01:34:51;;;;;;;2.67;1.50;;;14.60;99.90;;;;;;2099826;28;20032;-72
2023/10/21 01:35:52;;;;;;;1.70;1.00;;;14.60;99.90;;;;;;2098312;28;20119;-72
2023/10/21 01:36:52;;;;;;;0.80;0.80;;;14.60;99.90;;;;;;2099069;28;20097;-72
2023/10/21 01:37:53;;;;;;;2.55;0.80;;;14.70;99.90;;;;;;2100309;28;20038;-72
2023/10/21 01:38:54;;;;;;;2.65;1.00;;;14.70;99.90;;;;;;2099859;28;20157;-72
2023/10/21 01:39:54;;;;;;;2.90;1.13;;;14.70;99.90;;;;;;2098371;28;20029;-72
2023/10/21 01:40:55;;;;;;;2.25;0.80;;;14.70;99.90;;;;;;2098578;28;20032;-72
2023/10/21 01:41:55;;;;;;;2.63;0.80;;;14.70;99.90;;;;;;2099372;28;20471;-72
2023/10/21 01:42:56;;;;;;;3.65;0.90;;;14.70;99.90;;;;;;2098948;28;20086;-72
2023/10/21 01:43:57;;;;;;;2.05;0.90;;;14.70;99.90;;;;;;2097487;28;20033;-72
2023/10/21 01:44:57;;;;;;;1.35;0.90;;;14.70;99.90;;;;;;2097293;28;20035;-72
2023/10/21 01:46:02;;;;;;;1.60;0.95;;;14.70;99.90;;;;;;2101896;28;20031;-72
2023/10/21 01:47:03;;;;;;;0.63;0.63;;;14.70;99.90;;;;;;2102791;28;20079;-73
2023/10/21 01:48:05;;;;;;;1.15;0.55;;;14.70;99.90;;;;;;2100441;28;20031;-72
2023/10/21 01:49:05;;;;;;;2.53;0.90;;;14.70;99.90;;;;;;2091814;28;20025;-73
2023/10/21 01:50:07;;;;;;;2.13;0.82;;;14.70;99.90;;;;;;2096004;28;20056;-73
2023/10/21 01:51:08;;;;;;;1.20;0.88;;;14.70;99.90;;;;;;2100480;28;20068;-72
2023/10/21 01:52:09;;;;;;;4.13;0.90;;;14.80;99.90;;;;;;2099554;28;20046;-73
2023/10/21 01:53:09;;;;;;;2.42;0.60;;;14.70;99.90;;;;;;2099103;28;20451;-73
2023/10/21 01:54:10;;;;;;;5.03;1.00;;;14.70;99.90;;;;;;2099386;28;20475;-73
2023/10/21 01:55:11;;;;;;;3.05;1.15;;;14.80;99.90;;;;;;2103514;28;20371;-73
2023/10/21 01:56:12;;;;;;;1.05;0.70;;;14.70;99.90;;;;;;2102700;28;20034;-72
2023/10/21 01:57:12;;;;;;;0.95;0.68;;;14.80;99.90;;;;;;2099519;28;20020;-73
2023/10/21 01:58:13;;;;;;;0.95;0.68;;;14.80;99.90;;;;;;2100272;28;20031;-72
2023/10/21 01:59:14;;;;;;;3.20;1.08;;;14.80;99.90;;;;;;2099862;28;20483;-73
2023/10/21 02:00:18;;;;;;;0.77;0.77;;;14.80;99.90;;;;;;2098497;28;20136;-72
2023/10/21 02:01:19;;;;;;;1.02;0.70;;;14.80;99.90;;;;;;2099625;28;20024;-73
2023/10/21 02:02:20;;;;;;;1.83;0.82;;;14.70;99.90;;;;;;2098847;28;20060;-72
2023/10/21 02:03:20;;;;;;;2.50;1.02;;;14.80;99.90;;;;;;2100307;28;20024;-73
2023/10/21 02:04:21;;;;;;;2.50;1.02;;;14.70;99.90;;;;;;2097586;28;20483;-73
2023/10/21 02:05:22;;;;;;;2.72;0.60;;;14.70;99.90;;;;;;2099029;28;20098;-72
2023/10/21 02:06:23;;;;;;;2.28;0.75;;;14.80;99.90;;;;;;2099251;28;20735;-72
2023/10/21 02:07:23;;;;;;;1.80;0.80;;;14.70;99.90;;;;;;2097728;28;20512;-73
2023/10/21 02:08:24;;;;;;;2.08;0.73;;;14.80;99.90;;;;;;2098829;28;20029;-72
2023/10/21 02:09:24;;;;;;;0.70;0.50;;;14.70;99.90;;;;;;2097100;28;20060;-73
2023/10/21 02:10:25;;;;;;;4.05;0.80;;;14.80;99.90;;;;;;2102051;28;20024;-73
2023/10/21 02:11:25;;;;;;;1.17;0.70;;;14.80;99.90;;;;;;2102602;28;20028;-73
2023/10/21 02:12:28;;;;;;;1.73;0.75;;;14.80;99.90;;;;;;2097522;28;20039;-73
2023/10/21 02:13:28;;;;;;;0.98;0.55;;;14.80;99.90;;;;;;2100389;28;20065;-74
2023/10/21 02:14:29;;;;;;;2.03;0.73;;;14.80;99.90;;;;;;2098863;28;20044;-73
2023/10/21 02:15:29;;;;;;;0.77;0.75;;;14.80;99.90;;;;;;2098959;28;20028;-73
2023/10/21 02:16:30;;;;;;;1.85;0.65;;;14.80;99.90;;;;;;2098968;28;20454;-72
2023/10/21 02:17:31;;;;;;;0.85;0.70;;;14.80;99.90;;;;;;2106355;28;20027;-73
2023/10/21 02:18:31;;;;;;;1.02;0.68;;;14.80;99.90;;;;;;2104953;28;20601;-72
2023/10/21 02:19:32;;;;;;;1.70;0.73;;;14.80;99.90;;;;;;2098843;28;20463;-73
2023/10/21 02:20:32;;;;;;;2.17;0.88;;;14.80;99.90;;;;;;2099386;28;20418;-72
2023/10/21 02:21:33;;;;;;;1.83;1.67;;;14.80;99.90;;;;;;2100811;28;20016;-72
2023/10/21 02:22:34;;;;;;;1.33;0.85;;;14.80;99.90;;;;;;2098645;28;20031;-73
2023/10/21 02:23:35;;;;;;;1.38;1.05;;;14.80;99.90;;;;;;2097343;28;20028;-73
2023/10/21 02:24:36;;;;;;;4.75;0.98;;;14.80;99.90;;;;;;2101673;28;20044;-72
2023/10/21 02:25:36;;;;;;;1.15;0.63;;;14.80;99.90;;;;;;2097472;28;20024;-72
2023/10/21 02:26:37;;;;;;;3.17;0.63;;;14.80;99.90;;;;;;2098012;28;20400;-73
2023/10/21 02:27:39;;;;;;;4.25;0.82;;;14.80;99.90;;;;;;2097329;28;20115;-73
2023/10/21 02:28:40;;;;;;;2.83;0.80;;;14.80;99.90;;;;;;2097995;28;20052;-73
2023/10/21 02:29:41;;;;;;;2.00;0.90;;;14.80;99.90;;;;;;2097162;28;20141;-73
2023/10/21 02:30:42;;;;;;;3.05;0.80;;;14.80;99.90;;;;;;2098329;28;20033;-73
2023/10/21 02:31:42;;;;;;;1.88;0.75;;;14.80;99.90;;;;;;2097333;28;20025;-74
2023/10/21 02:32:44;;;;;;;1.42;0.85;;;14.80;99.90;;;;;;2098880;28;20097;-73
2023/10/21 02:33:45;;;;;;;1.67;1.08;;;14.80;99.90;;;;;;2097366;28;20514;-73
2023/10/21 02:34:45;;;;;;;3.92;0.82;;;14.80;99.90;;;;;;2100685;28;20028;-73
2023/10/21 02:35:51;;;;;;;7.15;1.17;;;14.80;99.90;;;;;;2097487;28;20040;-73
2023/10/21 02:36:51;;;;;;;2.17;1.00;;;14.80;99.90;;;;;;2096516;28;20098;-73
2023/10/21 02:37:52;;;;;;;1.40;0.80;;;14.80;99.90;;;;;;2097727;28;20077;-73
2023/10/21 02:38:53;;;;;;;1.98;0.70;;;14.90;99.90;;;;;;2098633;28;20085;-73
2023/10/21 02:39:54;;;;;;;1.42;0.75;;;14.80;99.90;;;;;;2096835;28;20391;-74
2023/10/21 02:40:54;;;;;;;1.20;0.85;;;14.90;99.90;;;;;;2097461;28;20032;-73
2023/10/21 02:41:55;;;;;;;2.00;0.90;;;14.90;99.90;;;;;;2098469;28;20032;-73
2023/10/21 02:42:55;;;;;;;2.42;0.85;;;14.90;99.90;;;;;;2098396;28;20103;-73
2023/10/21 02:43:56;;;;;;;1.52;0.80;;;14.90;99.90;;;;;;2098616;28;20089;-74
2023/10/21 02:44:57;;;;;;;2.28;1.00;;;14.90;99.90;;;;;;2098440;28;20056;-74
2023/10/21 02:46:15;;;;;;;1.70;0.80;;;14.90;99.90;;;;;;2097926;28;20020;-73
2023/10/21 02:47:16;;;;;;;2.63;0.63;;;14.90;99.90;;;;;;2101979;28;20023;-74
2023/10/21 02:48:16;;;;;;;4.28;1.00;;;14.90;99.90;;;;;;2103405;28;20455;-73
2023/10/21 02:49:17;;;;;;;1.08;0.80;;;14.90;99.90;;;;;;2097944;28;20097;-73
2023/10/21 02:50:17;;;;;;;2.10;1.00;;;14.90;99.90;;;;;;2097153;28;20033;-73
2023/10/21 02:51:18;;;;;;;1.15;0.70;;;14.90;99.90;;;;;;2099168;28;20120;-74
2023/10/21 02:52:19;;;;;;;1.00;0.80;;;14.90;99.90;;;;;;2099119;28;20082;-73
2023/10/21 02:53:19;;;;;;;3.05;1.05;;;14.90;99.90;;;;;;2099746;28;20024;-74
2023/10/21 02:54:20;;;;;;;3.22;0.88;;;14.90;99.90;;;;;;2097973;28;20031;-74
2023/10/21 02:55:20;;;;;;;1.05;0.80;;;14.90;99.90;;;;;;2097490;28;20364;-73
2023/10/21 02:56:21;;;;;;;0.90;0.75;;;14.90;99.90;;;;;;2099365;28;20051;-73
2023/10/21 02:57:22;;;;;;;3.10;1.27;;;14.90;99.90;;;;;;2098641;28;20463;-73
2023/10/21 02:58:22;;;;;;;1.52;0.80;;;14.90;99.90;;;;;;2100121;28;20364;-73
2023/10/21 02:59:23;;;;;;;5.55;0.98;;;14.90;99.90;;;;;;2099862;28;20032;-73
2023/10/21 03:00:23;;;;;;;2.28;0.70;;;14.90;99.90;;;;;;2097575;28;20025;-73
2023/10/21 03:01:25;;;;;;;3.95;0.88;;;15.00;99.90;;;;;;2098275;28;20031;-73
2023/10/21 03:02:26;;;;;;;0.75;0.60;;;15.00;99.90;;;;;;2097837;28;20569;-73
2023/10/21 03:03:27;;;;;;;2.55;1.15;;;14.90;99.90;;;;;;2098345;28;20622;-73
2023/10/21 03:04:27;;;;;;;2.28;0.55;;;14.90;99.90;;;;;;2098128;28;20043;-73
2023/10/21 03:05:28;;;;;;;5.38;1.00;;;15.00;99.90;;;;;;2098638;28;20052;-74
2023/10/21 03:06:29;;;;;;;2.15;0.95;;;14.90;99.90;;;;;;2098641;28;20024;-75
2023/10/21 03:07:29;;;;;;;2.63;0.90;;;15.00;99.90;;;;;;2097983;28;20016;-73
2023/10/21 03:08:30;;;;;;;2.33;1.20;;;15.00;99.90;;;;;;2097595;28;20025;-73
2023/10/21 03:09:31;;;;;;;2.17;0.90;;;15.00;99.90;;;;;;2098070;28;20028;-73
2023/10/21 03:10:31;;;;;;;2.38;0.90;;;15.00;99.90;;;;;;2100502;28;20024;-73
2023/10/21 03:11:32;;;;;;;1.92;0.88;;;15.00;99.90;;;;;;2100786;28;20138;-74
2023/10/21 03:12:33;;;;;;;1.38;0.82;;;15.00;99.90;;;;;;2098715;28;20054;-75
2023/10/21 03:13:38;;;;;;;2.58;0.93;;;15.00;99.90;;;;;;2098986;28;20023;-75
2023/10/21 03:14:39;;;;;;;2.17;0.93;;;15.00;99.90;;;;;;2098416;28;20029;-75
2023/10/21 03:15:40;;;;;;;2.38;1.02;;;15.00;99.90;;;;;;2099363;28;20080;-75
2023/10/21 03:16:40;;;;;;;1.92;0.90;;;15.00;99.90;;;;;;2098835;28;20024;-75
2023/10/21 03:17:41;;;;;;;2.97;1.00;;;15.00;99.90;;;;;;2100380;28;20028;-75
2023/10/21 03:18:41;;;;;;;2.95;0.80;;;15.00;99.90;;;;;;2100910;28;20032;-75
2023/10/21 03:19:42;;;;;;;1.45;0.70;;;15.00;99.90;;;;;;2098717;28;20028;-75
2023/10/21 03:20:43;;;;;;;2.45;0.80;;;15.00;99.90;;;;;;2098114;28;20115;-76
2023/10/21 03:21:45;;;;;;;1.85;0.80;;;15.00;99.90;;;;;;2100427;28;20074;-76
2023/10/21 03:22:45;;;;;;;2.72;0.95;;;15.00;99.90;;;;;;2099392;28;20074;-75
2023/10/21 03:23:46;;;;;;;1.20;0.80;;;15.00;99.90;;;;;;2099254;28;20078;-75
2023/10/21 03:24:46;;;;;;;4.00;1.10;;;15.00;99.90;;;;;;2100561;28;20024;-75
2023/10/21 03:25:57;;;;;;;1.95;1.02;;;15.00;99.90;;;;;;2094940;28;20028;-75
2023/10/21 03:26:57;;;;;;;2.28;1.15;;;15.00;99.90;;;;;;2096400;28;20043;-76
2023/10/21 03:27:58;;;;;;;2.30;1.00;;;15.00;99.90;;;;;;2100581;28;20063;-75
2023/10/21 03:28:58;;;;;;;1.80;0.90;;;15.00;99.90;;;;;;2100842;28;20030;-76
2023/10/21 03:29:59;;;;;;;3.50;1.30;;;15.00;99.90;;;;;;2100246;28;20792;-75
2023/10/21 03:31:01;;;;;;;1.25;0.85;;;15.00;99.90;;;;;;2102062;28;20036;-75
2023/10/21 03:32:02;;;;;;;2.33;0.93;;;15.00;99.90;;;;;;2102947;28;20044;-75
2023/10/21 03:33:03;;;;;;;2.42;1.15;;;15.00;99.90;;;;;;2103575;28;20061;-74
2023/10/21 03:34:03;;;;;;;5.50;1.00;;;15.00;99.90;;;;;;2098783;28;20043;-75
2023/10/21 03:35:04;;;;;;;2.35;1.10;;;15.00;99.90;;;;;;2103914;28;20028;-75
2023/10/21 03:36:05;;;;;;;3.03;1.20;;;15.00;99.90;;;;;;2103583;28;20070;-75
2023/10/21 03:37:06;;;;;;;2.30;1.00;;;15.00;99.90;;;;;;2100921;28;20035;-75
2023/10/21 03:38:07;;;;;;;3.20;0.95;;;15.00;99.90;;;;;;2098739;28;20025;-75
2023/10/21 03:39:07;;;;;;;1.98;1.25;;;15.00;99.90;;;;;;2101042;28;20825;-75
2023/10/21 03:40:10;;;;;;;3.53;0.90;;;15.00;99.90;;;;;;2102488;28;20235;-76
2023/10/21 03:41:11;;;;;;;1.90;0.90;;;15.00;99.90;;;;;;2102908;28;20035;-74
2023/10/21 03:42:12;;;;;;;1.80;1.00;;;15.00;99.90;;;;;;2098908;28;20040;-76
2023/10/21 03:43:12;;;;;;;3.22;1.85;;;15.00;99.90;;;;;;2098729;28;20020;-75
2023/10/21 03:44:13;;;;;;;2.28;1.20;;;15.00;99.90;;;;;;2100796;28;20024;-75
2023/10/21 03:45:13;;;;;;;3.40;1.20;;;15.00;99.90;;;;;;2099635;28;20024;-76
2023/10/21 03:46:14;;;;;;;2.53;1.10;;;15.00;99.90;;;;;;2097179;28;20036;-74
2023/10/21 03:47:16;;;;;;;2.10;1.05;;;15.00;99.90;;;;;;2097878;28;20036;-75
2023/10/21 03:48:16;;;;;;;1.58;1.00;;;15.00;99.90;;;;;;2104483;28;20060;-75
2023/10/21 03:49:17;;;;;;;4.20;1.00;;;15.00;99.90;;;;;;2103016;28;20036;-75
2023/10/21 03:50:18;;;;;;;1.30;0.93;;;15.00;99.90;;;;;;2098855;28;20029;-75
2023/10/21 03:51:19;;;;;;;5.07;1.20;;;15.00;99.90;;;;;;2100282;28;20020;-75
2023/10/21 03:52:20;;;;;;;2.78;1.00;;;15.00;99.90;;;;;;2101560;28;20056;-75
2023/10/21 03:53:20;;;;;;;2.85;1.08;;;15.00;99.90;;;;;;2104967;28;20020;-75
2023/10/21 03:54:21;;;;;;;1.30;1.08;;;15.00;99.90;;;;;;2103529;28;20016;-75
2023/10/21 03:55:22;;;;;;;3.22;1.00;;;15.00;99.90;;;;;;2101265;28;20025;-75
2023/10/21 03:56:22;;;;;;;3.15;1.17;;;15.00;99.90;;;;;;2104278;28;20020;-75
2023/10/21 03:57:23;;;;;;;5.43;1.48;;;15.00;99.90;;;;;;2103635;28;20052;-75
2023/10/21 03:58:24;;;;;;;3.97;1.60;;;15.00;99.90;;;;;;2100752;28;20028;-75
2023/10/21 03:59:24;;;;;;;3.22;1.48;;;15.00;99.90;;;;;;2104221;28;20030;-74
2023/10/21 04:00:25;;;;;;;3.33;1.30;;;15.00;99.90;;;;;;2104139;28;20060;-75
2023/10/21 04:01:25;;;;;;;2.85;1.50;;;15.00;99.90;;;;;;2107514;28;20028;-75
2023/10/21 04:02:26;;;;;;;5.38;1.77;;;15.00;99.90;;;;;;2103347;28;20021;-75
2023/10/21 04:03:27;;;;;;;4.32;1.85;;;15.00;99.90;;;;;;2105194;28;20062;-75
2023/10/21 04:04:27;;;;;;;2.35;1.52;;;15.00;99.90;;;;;;2101409;28;20691;-75
2023/10/21 04:05:28;;;;;;;3.40;2.17;;;15.00;99.90;;;;;;2100453;28;20045;-75
2023/10/21 04:06:28;;;;;;;3.22;1.65;;;15.00;99.90;;;;;;2102522;28;20028;-74
2023/10/21 04:07:29;;;;;;;3.63;2.05;;;15.00;99.90;;;;;;2101269;28;20024;-75
2023/10/21 04:08:30;;;;;;;2.40;1.63;;;15.00;99.90;;;;;;2100297;28;20021;-75
2023/10/21 04:09:31;;;;;;;2.15;1.92;;;15.00;99.90;;;;;;2101186;28;20044;-75
2023/10/21 04:10:33;;;;;;;5.47;2.08;;;15.00;99.90;;;;;;2101096;28;20021;-75
2023/10/21 04:11:33;;;;;;;4.10;1.85;;;15.00;99.90;;;;;;2101569;28;20087;-75
2023/10/21 04:12:34;;;;;;;3.90;1.50;;;15.00;99.90;;;;;;2100819;28;20020;-75
2023/10/21 04:13:37;;;;;;;2.92;1.75;;;15.00;99.90;;;;;;2099755;28;20514;-76
2023/10/21 04:14:38;;;;;;;3.40;2.13;;;15.10;99.90;;;;;;2099648;28;20515;-75
2023/10/21 04:15:39;;;;;;;1.95;1.77;;;15.00;99.90;;;;;;2100702;28;20043;-75
2023/10/21 04:16:44;;;;;;;3.35;1.90;;;15.00;99.90;;;;;;2101226;28;20070;-75
2023/10/21 04:17:47;;;;;;;3.65;1.85;;;15.00;99.90;;;;;;2101893;28;20555;-76
2023/10/21 04:18:48;;;;;;;1.90;1.80;;;15.00;99.90;;;;;;2099835;28;20084;-75
2023/10/21 04:19:51;;;;;;;2.03;1.70;;;15.10;99.90;;;;;;2101740;28;20027;-75
2023/10/21 04:20:51;;;;;;;3.15;1.50;;;15.00;99.90;;;;;;2100401;28;20077;-75
2023/10/21 04:21:52;;;;;;;2.35;1.77;;;15.00;99.90;;;;;;2100989;28;20062;-75
2023/10/21 04:22:53;;;;;;;3.10;1.70;;;15.10;99.90;;;;;;2099679;28;20056;-75
2023/10/21 04:23:54;;;;;;;2.42;1.65;;;15.10;99.90;;;;;;2102253;28;20124;-75
2023/10/21 04:24:54;;;;;;;2.47;1.60;;;15.10;99.90;;;;;;2096197;28;20032;-75
2023/10/21 04:25:55;;;;;;;1.65;1.40;;;15.10;99.90;;;;;;2102958;28;20065;-75
2023/10/21 04:26:55;;;;;;;1.88;1.40;;;15.10;99.90;;;;;;2109267;28;20508;-75
2023/10/21 04:27:56;;;;;;;1.75;1.17;;;15.10;99.90;;;;;;2107748;28;20028;-75
2023/10/21 04:28:57;;;;;;;2.63;1.50;;;15.10;99.90;;;;;;2100712;28;20031;-75
2023/10/21 04:29:57;;;;;;;2.95;1.42;;;15.10;99.90;;;;;;2105234;28;20143;-75
2023/10/21 04:30:58;;;;;;;1.45;1.20;;;15.10;99.90;;;;;;2104993;28;20082;-75
2023/10/21 04:31:58;;;;;;;1.25;1.10;;;15.10;99.90;;;;;;2102346;28;20025;-75
2023/10/21 04:32:59;;;;;;;2.83;1.25;;;15.10;99.90;;;;;;2103061;28;20077;-75
2023/10/21 04:33:59;;;;;;;1.15;0.90;;;15.10;99.90;;;;;;2107351;28;20143;-75
2023/10/21 04:35:00;;;;;;;2.55;1.33;;;15.10;99.90;;;;;;2107238;28;20032;-76
2023/10/21 04:36:01;;;;;;;4.53;1.50;;;15.10;99.90;;;;;;2100600;28;20036;-76
2023/10/21 04:37:02;;;;;;;2.20;1.38;;;15.10;99.90;;;;;;2103756;28;20039;-75
2023/10/21 04:38:02;;;;;;;3.38;1.30;;;15.10;99.90;;;;;;2096383;28;20028;-75
2023/10/21 04:39:03;;;;;;;2.85;1.30;;;15.10;99.90;;;;;;2104301;28;20032;-75
2023/10/21 04:40:05;;;;;;;2.08;0.95;;;15.20;99.90;;;;;;2099555;28;20032;-75
2023/10/21 04:41:07;;;;;;;3.55;1.50;;;15.10;99.90;;;;;;2098990;28;20039;-75
2023/10/21 04:42:09;;;;;;;2.05;1.42;;;15.20;99.90;;;;;;2102153;28;20522;-75
2023/10/21 04:43:09;;;;;;;1.95;1.10;;;15.10;99.90;;;;;;2101548;28;20484;-76
2023/10/21 04:44:13;;;;;;;1.20;1.10;;;15.20;99.90;;;;;;2099217;28;20042;-76
2023/10/21 04:45:14;;;;;;;1.10;1.00;;;15.20;99.90;;;;;;2099829;28;20028;-76
2023/10/21 04:46:15;;;;;;;1.65;1.13;;;15.20;99.90;;;;;;2100376;28;20038;-76
2023/10/21 04:47:18;;;;;;;2.65;1.17;;;15.20;99.90;;;;;;2099469;28;20586;-76
2023/10/21 04:48:18;;;;;;;2.67;1.08;;;15.20;99.90;;;;;;2100442;28;20052;-75
2023/10/21 04:49:19;;;;;;;3.50;1.55;;;15.20;99.90;;;;;;2108768;28;20030;-75
2023/10/21 04:50:19;;;;;;;1.67;1.30;;;15.20;99.90;;;;;;2107951;28;20443;-75
2023/10/21 04:51:20;;;;;;;1.85;1.35;;;15.20;99.90;;;;;;2101771;28;20303;-75
2023/10/21 04:52:21;;;;;;;2.42;1.48;;;15.20;99.90;;;;;;2102836;28;20032;-74
2023/10/21 04:53:21;;;;;;;2.28;1.40;;;15.20;99.90;;;;;;2101170;28;20031;-75
2023/10/21 04:54:22;;;;;;;2.58;1.50;;;15.20;99.90;;;;;;2098979;28;20425;-74
2023/10/21 04:55:23;;;;;;;4.20;2.35;;;15.20;99.90;;;;;;2103778;28;20028;-76
2023/10/21 04:56:26;;;;;;;3.58;1.42;;;15.20;99.90;;;;;;2102579;28;20020;-74
2023/10/21 04:57:27;;;;;;;2.15;1.40;;;15.30;99.90;;;;;;2103447;28;20095;-75
2023/10/21 04:58:27;;;;;;;1.80;1.35;;;15.20;99.90;;;;;;2105070;28;20487;-76
2023/10/21 04:59:28;;;;;;;2.55;1.38;;;15.30;99.90;;;;;;2103809;28;20058;-75
2023/10/21 05:00:29;;;;;;;1.45;1.17;;;15.30;99.90;;;;;;2100212;28;20120;-76
2023/10/21 05:01:29;;;;;;;3.35;1.40;;;15.30;99.90;;;;;;2104445;28;20395;-75
2023/10/21 05:02:30;;;;;;;2.40;1.25;;;15.30;99.90;;;;;;2102555;28;20030;-75
2023/10/21 05:03:30;;;;;;;3.75;1.23;;;15.30;99.90;;;;;;2104361;28;20039;-76
2023/10/21 05:04:31;;;;;;;3.78;1.20;;;15.30;99.90;;;;;;2103087;28;20029;-75
2023/10/21 05:05:34;;;;;;;2.63;1.30;;;15.30;99.90;;;;;;2095395;28;21562;-76
2023/10/21 05:06:35;;;;;;;1.88;1.45;;;15.30;99.90;;;;;;2100222;28;20048;-75
2023/10/21 05:07:36;;;;;;;2.35;1.45;;;15.30;99.90;;;;;;2101909;28;20082;-75
2023/10/21 05:08:36;;;;;;;1.60;1.20;;;15.30;99.90;;;;;;2100495;28;20128;-74
2023/10/21 05:09:37;;;;;;;3.30;1.70;;;15.30;99.90;;;;;;2098710;28;20033;-74
2023/10/21 05:10:38;;;;;;;4.35;1.85;;;15.30;99.90;;;;;;2102361;28;20031;-75
2023/10/21 05:11:39;;;;;;;3.65;1.77;;;15.30;99.90;;;;;;2101624;28;20074;-76
2023/10/21 05:12:39;;;;;;;1.95;1.25;;;15.30;99.90;;;;;;2101450;28;20097;-75
2023/10/21 05:13:40;;;;;;;2.45;1.15;;;15.30;99.90;;;;;;2105347;28;20028;-75
2023/10/21 05:14:40;;;;;;;3.50;1.48;;;15.30;99.90;;;;;;2100693;28;20036;-75
2023/10/21 05:15:41;;;;;;;3.65;1.77;;;15.30;99.90;;;;;;2103098;28;20055;-75
2023/10/21 05:16:42;;;;;;;4.80;1.20;;;15.30;99.90;;;;;;2101601;28;20403;-76
2023/10/21 05:17:42;;;;;;;2.45;1.50;;;15.30;99.90;;;;;;2101717;28;20028;-76
2023/10/21 05:18:43;;;;;;;1.60;1.30;;;15.30;99.90;;;;;;2106974;28;20530;-76